^^
Saratoga-Weather Station Historical Data
Daily Summary for September 29, 2021 Units:  English    Metric   Both
Daily Weekly Monthly Yearly Custom
  High: Low: Average:
Temperature: 60.4 °F 45.9 °F 52.3 °F
Dew Point: 54.5 °F 43.3 °F 47.8 °F
Humidity: 97% 58% 86%
Wind Speed: 15mph 0mph 3mph
Wind Gust: 22mph - -
Wind- - West
Pressure: 30.3 in 30 in -
Precipitation: 0.13 in    
Historical Graphs
 
 
Tabular Data for September 29, 2021
Time Temperature Dew Point Pressure Wind Wind Speed Wind Gust Humidity Rainfall Rate (Hourly) solar
00:01 49.6 °F 48 °F 30.1 in Calm     94% 0 in 0 W/m2
00:06 49.6 °F 48.2 °F 30.1 in Calm     95% 0 in 0 W/m2
00:11 49.5 °F 48 °F 30.1 in Calm     95% 0 in 0 W/m2
00:16 49.5 °F 48 °F 30.1 in Calm     95% 0 in 0 W/m2
00:21 49.3 °F 47.8 °F 30.1 in Calm     95% 0 in 0 W/m2
00:26 49.3 °F 47.8 °F 30.1 in Calm     95% 0 in 0 W/m2
00:31 49.1 °F 47.7 °F 30.1 in Calm     95% 0 in 0 W/m2
00:36 48.9 °F 47.5 °F 30.1 in Calm     95% 0 in 0 W/m2
00:41 48.9 °F 47.5 °F 30.1 in Calm     95% 0 in 0 W/m2
00:46 48.7 °F 47.3 °F 30.1 in Calm     95% 0 in 0 W/m2
00:51 48.7 °F 47.3 °F 30.1 in Calm     95% 0 in 0 W/m2
00:56 48.7 °F 47.3 °F 30.1 in Calm     95% 0 in 0 W/m2
01:01 48.7 °F 47.3 °F 30.1 in Calm     95% 0 in 0 W/m2
01:06 48.7 °F 47.3 °F 30.1 in Calm     95% 0 in 0 W/m2
01:11 48.7 °F 47.3 °F 30.1 in Calm     95% 0 in 0 W/m2
01:16 48.6 °F 47.1 °F 30.1 in Calm     95% 0 in 0 W/m2
01:21 48.6 °F 47.1 °F 30.1 in Calm     95% 0 in 0 W/m2
01:26 48.6 °F 47.1 °F 30.1 in Calm     95% 0 in 0 W/m2
01:31 48.6 °F 47.1 °F 30.1 in Calm     95% 0 in 0 W/m2
01:36 48.4 °F 46.9 °F 30.1 in Calm     95% 0 in 0 W/m2
01:41 48.4 °F 47.3 °F 30.1 in Calm     96% 0 in 0 W/m2
01:46 48.4 °F 47.3 °F 30.1 in Calm     96% 0 in 0 W/m2
01:51 48.4 °F 47.3 °F 30.1 in Calm     96% 0 in 0 W/m2
01:56 48.4 °F 47.3 °F 30.1 in Calm     96% 0 in 0 W/m2
02:01 48.4 °F 47.3 °F 30.1 in Calm     96% 0 in 0 W/m2
02:06 48.4 °F 47.3 °F 30.1 in Calm     96% 0 in 0 W/m2
02:11 48.4 °F 47.3 °F 30.1 in Calm     96% 0 in 0 W/m2
02:16 48.4 °F 47.3 °F 30.1 in Calm     96% 0 in 0 W/m2
02:21 48.4 °F 47.3 °F 30.1 in Calm     96% 0 in 0 W/m2
02:26 48.4 °F 47.3 °F 30.1 in Calm     96% 0 in 0 W/m2
02:31 48.2 °F 47.1 °F 30.1 in Calm     96% 0 in 0 W/m2
02:36 48 °F 46.9 °F 30.1 in Calm     96% 0 in 0 W/m2
02:41 48 °F 46.9 °F 30.1 in Calm     96% 0 in 0 W/m2
02:46 48 °F 46.9 °F 30.1 in Calm     96% 0 in 0 W/m2
02:51 48 °F 46.9 °F 30.1 in Calm     96% 0 in 0 W/m2
02:56 47.8 °F 46.8 °F 30.1 in Calm     96% 0 in 0 W/m2
03:01 48 °F 46.9 °F 30.1 in Calm     96% 0 in 0 W/m2
03:06 48 °F 46.9 °F 30.1 in Calm     96% 0 in 0 W/m2
03:11 48.2 °F 47.1 °F 30.1 in Calm     96% 0 in 0 W/m2
03:16 48.2 °F 47.1 °F 30.1 in Calm     96% 0 in 0 W/m2
03:21 48.2 °F 47.1 °F 30.1 in Calm     96% 0 in 0 W/m2
03:26 48.4 °F 47.3 °F 30.1 in Calm     96% 0 in 0 W/m2
03:31 48.2 °F 47.1 °F 30.1 in Calm     96% 0 in 0 W/m2
03:36 48.2 °F 47.1 °F 30.1 in Calm     96% 0 in 0 W/m2
03:41 48.2 °F 47.1 °F 30.1 in Calm     96% 0 in 0 W/m2
03:46 48 °F 46.9 °F 30.1 in Calm     96% 0 in 0 W/m2
03:51 48 °F 46.9 °F 30.1 in Calm     96% 0 in 0 W/m2
03:56 47.8 °F 46.8 °F 30.1 in Calm     96% 0 in 0 W/m2
04:01 47.8 °F 46.8 °F 30 in Calm     96% 0 in 0 W/m2
04:06 47.7 °F 46.6 °F 30 in Calm     96% 0 in 0 W/m2
04:11 47.5 °F 46.4 °F 30 in Calm     96% 0 in 0 W/m2
04:16 47.5 °F 46.4 °F 30 in Calm     96% 0 in 0 W/m2
04:21 47.1 °F 46 °F 30 in Calm     96% 0 in 0 W/m2
04:26 47.1 °F 46 °F 30 in Calm     96% 0 in 0 W/m2
04:31 47.1 °F 46 °F 30 in Calm     96% 0 in 0 W/m2
04:36 46.9 °F 45.9 °F 30 in Calm     96% 0 in 0 W/m2
04:41 46.9 °F 45.9 °F 30 in Calm     96% 0 in 0 W/m2
04:46 46.9 °F 45.9 °F 30 in Calm     96% 0 in 0 W/m2
04:51 46.8 °F 45.7 °F 30 in Calm     96% 0 in 0 W/m2
04:56 46.6 °F 45.5 °F 30 in Calm     96% 0 in 0 W/m2
05:01 46.6 °F 45.5 °F 30 in Calm     96% 0 in 0 W/m2
05:06 46.4 °F 45.3 °F 30 in Calm     96% 0 in 0 W/m2
05:11 46.2 °F 45.1 °F 30 in Calm     96% 0 in 0 W/m2
05:16 46 °F 45 °F 30 in Calm     96% 0 in 0 W/m2
05:21 46 °F 45 °F 30 in Calm     96% 0 in 0 W/m2
05:26 45.9 °F 44.8 °F 30 in Calm     96% 0 in 0 W/m2
05:31 45.9 °F 44.8 °F 30 in Calm     96% 0 in 0 W/m2
05:36 45.9 °F 44.8 °F 30 in Calm     96% 0 in 0 W/m2
05:41 45.9 °F 44.8 °F 30 in Calm     96% 0 in 0 W/m2
05:46 46 °F 45 °F 30 in Calm     96% 0 in 0 W/m2
05:51 46.2 °F 45.1 °F 30 in Calm     96% 0 in 0 W/m2
05:56 46.4 °F 45.3 °F 30 in Calm     96% 0 in 0 W/m2
06:01 46.8 °F 46 °F 30 in Calm     97% 0 in 0 W/m2
06:06 46.9 °F 46.2 °F 30 in Calm     97% 0 in 0 W/m2
06:11 46.9 °F 46.2 °F 30 in Calm     97% 0 in 0 W/m2
06:16 47.1 °F 46.4 °F 30 in Calm     97% 0 in 0 W/m2
06:21 47.1 °F 46.4 °F 30 in Calm     97% 0 in 0 W/m2
06:26 46.9 °F 46.2 °F 30 in Calm     97% 0 in 0 W/m2
06:31 46.9 °F 46.2 °F 30 in Calm   1 mph 97% 0 in 0 W/m2
06:36 46.8 °F 45.7 °F 30 in Calm   1 mph 96% 0 in 0 W/m2
06:41 46.9 °F 45.9 °F 30 in East 2 mph 2 mph 96% 0 in 0 W/m2
06:46 46.9 °F 46.2 °F 30 in Calm     97% 0 in 0 W/m2
06:51 46.9 °F 46.2 °F 30 in Calm     97% 0 in 0 W/m2
06:57 46.9 °F 46.2 °F 30 in Calm     97% 0 in 0 W/m2
07:02 47.1 °F 46.4 °F 30 in Calm   2 mph 97% 0 in 0 W/m2
07:07 47.1 °F 46.4 °F 30 in East 0.9 mph 1 mph 97% 0 in 0 W/m2
07:12 47.3 °F 46.6 °F 30 in Calm   1 mph 97% 0 in 0 W/m2
07:17 47.8 °F 46.9 °F 30 in SE 0.9 mph 3 mph 97% 0 in 0 W/m2
07:22 48.6 °F 47.7 °F 30 in South 2 mph 2 mph 97% 0 in 0 W/m2
07:27 49.5 °F 48.6 °F 30 in NNW 2 mph 3 mph 97% 0 in 0 W/m2
07:32 50.2 °F 49.3 °F 30 in Calm   1 mph 97% 0.01 in 0 W/m2
07:37 50.4 °F 49.5 °F 30 in Calm   2 mph 97% 0.01 in 0 W/m2
07:42 50.5 °F 49.6 °F 30 in Calm   2 mph 97% 0.01 in 0 W/m2
07:47 50.7 °F 49.8 °F 30 in WSW 0.9 mph 4 mph 97% 0.01 in 0 W/m2
07:52 50.9 °F 50 °F 30 in NE 0.9 mph 2 mph 97% 0.01 in 0 W/m2
07:57 51.1 °F 50.2 °F 30 in ESE 0.9 mph 3 mph 97% 0.01 in 0 W/m2
08:02 51.3 °F 50.2 °F 30 in Calm   2 mph 96% 0.01 in 5 W/m2
08:07 51.4 °F 50.4 °F 30 in Calm   2 mph 96% 0.01 in 12 W/m2
08:12 51.6 °F 50.2 °F 30 in WSW 0.9 mph 2 mph 95% 0.01 in 11 W/m2
08:17 51.6 °F 50.2 °F 30 in Calm   2 mph 95% 0.01 in 14 W/m2
08:22 51.8 °F 50.4 °F 30 in North 0.9 mph 2 mph 95% 0.01 in 19 W/m2
08:27 52 °F 50.5 °F 30 in Calm   1 mph 95% 0.01 in 30 W/m2
08:32 52.2 °F 50.5 °F 30 in NNW 2.9 mph 3 mph 94% 0 in 37 W/m2
08:37 52.5 °F 50.9 °F 30 in NW 2 mph 4 mph 94% 0 in 37 W/m2
08:42 52.9 °F 51.3 °F 30 in NNW 5 mph 5 mph 94% 0 in 46 W/m2
08:47 53.1 °F 51.1 °F 30 in NW 2 mph 3 mph 93% 0 in 53 W/m2
08:52 53.2 °F 50.9 °F 30 in North 4 mph 6 mph 92% 0 in 63 W/m2
08:57 53.6 °F 51.3 °F 30 in NNW 4 mph 4 mph 92% 0 in 63 W/m2
09:02 53.8 °F 51.4 °F 30 in ENE 2 mph 5 mph 92% 0 in 67 W/m2
09:07 54 °F 51.4 °F 30 in West 0.9 mph 3 mph 91% 0 in 58 W/m2
09:12 54.1 °F 51.6 °F 30 in NE 2 mph 3 mph 91% 0 in 69 W/m2
09:17 54.1 °F 51.6 °F 30 in NW 2 mph 9 mph 91% 0 in 63 W/m2
09:22 54.3 °F 51.4 °F 30 in West 2 mph 5 mph 90% 0 in 70 W/m2
09:27 54.7 °F 51.8 °F 30 in ENE 2.9 mph 7 mph 90% 0 in 97 W/m2
09:32 54.9 °F 52 °F 30 in NNW 0.9 mph 5 mph 90% 0 in 83 W/m2
09:37 55 °F 52.2 °F 30 in Calm   9 mph 90% 0 in 58 W/m2
09:42 55 °F 51.8 °F 30 in North 4 mph 5 mph 89% 0 in 79 W/m2
09:47 55.2 °F 52 °F 30 in NE 0.9 mph 6 mph 89% 0 in 327 W/m2
09:52 55.6 °F 52.3 °F 30 in WNW 4 mph 7 mph 89% 0 in 142 W/m2
09:57 55.9 °F 52.7 °F 30 in Calm   7 mph 89% 0 in 292 W/m2
10:02 56.1 °F 52.9 °F 30 in NW 2 mph 4 mph 89% 0 in 315 W/m2
10:07 56.7 °F 53.1 °F 30 in WSW 2.9 mph 9 mph 88% 0 in 332 W/m2
10:12 56.8 °F 53.1 °F 30 in NNW 8.1 mph 12 mph 87% 0 in 355 W/m2
10:17 57 °F 53.2 °F 30 in NW 2.9 mph 6 mph 87% 0 in 441 W/m2
10:22 57.6 °F 53.8 °F 30 in NNW 2.9 mph 9 mph 87% 0 in 439 W/m2
10:27 57.7 °F 53.6 °F 30 in WNW 4 mph 8 mph 86% 0 in 139 W/m2
10:32 57.7 °F 53.6 °F 30 in NNE 2.9 mph 7 mph 86% 0 in 100 W/m2
10:37 57.6 °F 53.4 °F 30 in SSW 0.9 mph 8 mph 86% 0 in 56 W/m2
10:42 57.4 °F 53.6 °F 30 in West 2.9 mph 6 mph 87% 0 in 46 W/m2
10:47 57 °F 53.2 °F 30 in NW 2 mph 5 mph 87% 0 in 35 W/m2
10:52 56.8 °F 53.2 °F 30 in NW 2 mph 4 mph 88% 0.01 in 21 W/m2
10:57 56.7 °F 53.4 °F 30 in WNW 4 mph 8 mph 89% 0.05 in 28 W/m2
11:02 56.1 °F 53.2 °F 30 in NW 4 mph 5 mph 90% 0.06 in 86 W/m2
11:07 56.1 °F 53.6 °F 30 in NNW 0.9 mph 8 mph 91% 0.07 in 137 W/m2
11:12 56.1 °F 53.8 °F 30 in Calm   3 mph 92% 0.07 in 102 W/m2
11:17 56.1 °F 53.8 °F 30 in NW 0.9 mph 8 mph 92% 0.07 in 91 W/m2
11:22 55.9 °F 53.6 °F 30 in WSW 4.9 mph 7 mph 92% 0.08 in 88 W/m2
11:27 55.9 °F 53.6 °F 30 in WNW 2 mph 7 mph 92% 0.09 in 51 W/m2
11:32 55.8 °F 53.4 °F 30 in West 6.9 mph 7 mph 92% 0.09 in 97 W/m2
11:37 55.8 °F 53.4 °F 30 in West 4 mph 9 mph 92% 0.09 in 204 W/m2
11:42 56.1 °F 54.1 °F 30.1 in WNW 2 mph 7 mph 93% 0.09 in 339 W/m2
11:47 56.5 °F 54.5 °F 30.1 in NW 4 mph 5 mph 93% 0.09 in 250 W/m2
11:52 56.7 °F 54.3 °F 30.1 in West 2.9 mph 7 mph 92% 0.09 in 172 W/m2
11:57 56.5 °F 54.1 °F 30.1 in West 4 mph 8 mph 92% 0.06 in 111 W/m2
12:02 56.1 °F 53.8 °F 30.1 in WNW 10.1 mph 11 mph 92% 0.05 in 329 W/m2
12:07 56.5 °F 54.1 °F 30.1 in West 4 mph 11 mph 92% 0.04 in 707 W/m2
12:12 56.8 °F 54.3 °F 30.1 in West 6 mph 8 mph 91% 0.04 in 279 W/m2
12:17 56.8 °F 54 °F 30.1 in West 8.1 mph 12 mph 90% 0.04 in 515 W/m2
12:22 56.7 °F 53.4 °F 30.1 in West 6.9 mph 10 mph 89% 0.03 in 299 W/m2
12:27 56.7 °F 53.8 °F 30.1 in West 6 mph 12 mph 90% 0.02 in 666 W/m2
12:32 56.8 °F 53.6 °F 30.1 in WSW 4 mph 8 mph 89% 0.02 in 315 W/m2
12:37 56.7 °F 52.9 °F 30.1 in WSW 4.9 mph 12 mph 87% 0.02 in 250 W/m2
12:42 56.5 °F 52.7 °F 30.1 in West 11 mph 11 mph 87% 0.02 in 216 W/m2
12:47 56.3 °F 52.5 °F 30.1 in West 4 mph 12 mph 87% 0.02 in 214 W/m2
12:52 56.1 °F 52.3 °F 30.1 in NW 15 mph 15 mph 87% 0.02 in 250 W/m2
12:57 56.3 °F 52.9 °F 30.1 in West 2 mph 9 mph 88% 0.01 in 306 W/m2
13:02 56.5 °F 52.9 °F 30.1 in West 2.9 mph 8 mph 88% 0 in 243 W/m2
13:07 56.5 °F 52.7 °F 30.1 in West 8.1 mph 12 mph 87% 0 in 272 W/m2
13:12 56.7 °F 52.2 °F 30.1 in West 8.9 mph 12 mph 85% 0 in 608 W/m2
13:17 57 °F 52 °F 30.1 in NW 4 mph 13 mph 83% 0 in 617 W/m2
13:22 57.4 °F 51.6 °F 30.1 in WSW 2.9 mph 11 mph 81% 0 in 631 W/m2
13:27 57.4 °F 51.3 °F 30.1 in West 6.9 mph 11 mph 80% 0 in 214 W/m2
13:32 57.7 °F 52.3 °F 30.1 in WNW 11 mph 11 mph 82% 0 in 654 W/m2
13:37 58.1 °F 51.3 °F 30.1 in WNW 8.9 mph 15 mph 78% 0 in 691 W/m2
13:42 58.5 °F 51.3 °F 30.1 in West 2.9 mph 9 mph 77% 0 in 691 W/m2
13:47 59 °F 51.4 °F 30.1 in NW 2 mph 9 mph 76% 0 in 680 W/m2
13:52 59 °F 50.7 °F 30.1 in NW 6.9 mph 13 mph 74% 0 in 202 W/m2
13:57 58.6 °F 50.7 °F 30.1 in WSW 4.9 mph 13 mph 75% 0 in 137 W/m2
14:03 58.5 °F 50.5 °F 30.1 in NW 4 mph 13 mph 75% 0 in 137 W/m2
14:08 58.6 °F 50.7 °F 30.1 in WNW 8.9 mph 17 mph 75% 0 in 213 W/m2
14:13 58.6 °F 50.7 °F 30.1 in SW 4.9 mph 10 mph 75% 0 in 167 W/m2
14:18 58.5 °F 50.2 °F 30.1 in WSW 6 mph 15 mph 74% 0 in 56 W/m2
14:23 58.5 °F 50.2 °F 30.1 in WSW 2.9 mph 8 mph 74% 0 in 58 W/m2
14:28 58.5 °F 50.2 °F 30.1 in West 6.9 mph 9 mph 74% 0 in 51 W/m2
14:33 58.8 °F 50.9 °F 30.1 in NW 2 mph 7 mph 75% 0 in 76 W/m2
14:38 59.4 °F 50.7 °F 30.1 in WSW 4 mph 12 mph 73% 0 in 207 W/m2
14:43 59.7 °F 50.4 °F 30.1 in WNW 8.1 mph 9 mph 71% 0 in 406 W/m2
14:48 60.3 °F 50 °F 30.1 in West 2.9 mph 9 mph 69% 0 in 153 W/m2
14:53 60.3 °F 50 °F 30.1 in WSW 4.9 mph 5 mph 69% 0 in 86 W/m2
14:58 60.1 °F 49.8 °F 30.1 in WSW 2 mph 5 mph 69% 0 in 118 W/m2
15:03 59.9 °F 48.9 °F 30.1 in West 8.1 mph 9 mph 67% 0 in 114 W/m2
15:08 59.4 °F 48.7 °F 30.1 in WNW 2 mph 14 mph 68% 0 in 60 W/m2
15:13 58.8 °F 47.8 °F 30.1 in WSW 8.9 mph 10 mph 67% 0 in 93 W/m2
15:18 58.6 °F 46.9 °F 30.1 in NNW 4.9 mph 14 mph 65% 0 in 111 W/m2
15:23 58.5 °F 46.8 °F 30.1 in NNW 4.9 mph 15 mph 65% 0 in 113 W/m2
15:28 59 °F 47.3 °F 30.1 in West 8.1 mph 13 mph 65% 0 in 121 W/m2
15:33 59.5 °F 46.9 °F 30.1 in West 6.9 mph 15 mph 63% 0 in 90 W/m2
15:38 59.5 °F 46.9 °F 30.1 in WNW 4 mph 9 mph 63% 0 in 86 W/m2
15:43 59.4 °F 46.8 °F 30.1 in WSW 11 mph 11 mph 63% 0 in 113 W/m2
15:48 59.2 °F 47.5 °F 30.1 in WNW 4 mph 9 mph 65% 0 in 113 W/m2
15:53 59.5 °F 46.9 °F 30.1 in SW 4.9 mph 9 mph 63% 0 in 519 W/m2
15:58 60.1 °F 45.7 °F 30.1 in West 6 mph 8 mph 59% 0 in 515 W/m2
16:03 60.4 °F 45.7 °F 30.1 in West 8.9 mph 13 mph 58% 0 in 69 W/m2
16:08 59.7 °F 45.9 °F 30.1 in WSW 8.9 mph 11 mph 60% 0 in 72 W/m2
16:13 58.6 °F 44.4 °F 30.1 in WSW 11 mph 22 mph 59% 0 in 114 W/m2
16:18 57.6 °F 43.3 °F 30.2 in NNW 13 mph 19 mph 59% 0 in 149 W/m2
16:23 56.7 °F 43.3 °F 30.2 in WNW 14.1 mph 22 mph 61% 0 in 107 W/m2
16:28 55.8 °F 45 °F 30.2 in WSW 4.9 mph 13 mph 67% 0 in 100 W/m2
16:33 54.7 °F 46.2 °F 30.2 in West 8.1 mph 19 mph 73% 0 in 258 W/m2
16:38 54.1 °F 45.7 °F 30.2 in WSW 2.9 mph 12 mph 73% 0.01 in 392 W/m2
16:43 54.3 °F 46.2 °F 30.2 in WNW 4 mph 9 mph 74% 0.01 in 378 W/m2
16:48 54.7 °F 46.2 °F 30.2 in WNW 2.9 mph 12 mph 73% 0.01 in 371 W/m2
16:53 55 °F 46.6 °F 30.2 in NW 4 mph 8 mph 73% 0.01 in 380 W/m2
16:58 55.6 °F 47.1 °F 30.2 in WSW 4.9 mph 9 mph 73% 0.01 in 397 W/m2
17:03 55.8 °F 46.6 °F 30.2 in WNW 8.1 mph 8 mph 71% 0.01 in 193 W/m2
17:08 55.8 °F 45.7 °F 30.2 in West 4 mph 13 mph 69% 0.01 in 137 W/m2
17:13 55.8 °F 46 °F 30.2 in WNW 2.9 mph 7 mph 70% 0.01 in 105 W/m2
17:18 55.8 °F 46.6 °F 30.2 in West 10.1 mph 10 mph 71% 0.01 in 178 W/m2
17:23 55.8 °F 46.6 °F 30.2 in WNW 2.9 mph 14 mph 71% 0.01 in 127 W/m2
17:28 55.8 °F 46.9 °F 30.2 in NW 4.9 mph 9 mph 72% 0.01 in 114 W/m2
17:33 55.8 °F 46.9 °F 30.2 in West 2.9 mph 7 mph 72% 0.01 in 88 W/m2
17:38 55.8 °F 46.9 °F 30.2 in West 4 mph 9 mph 72% 0 in 151 W/m2
17:43 55.8 °F 46.9 °F 30.2 in WSW 6.9 mph 9 mph 72% 0 in 72 W/m2
17:48 55.8 °F 46.9 °F 30.2 in WNW 2.9 mph 8 mph 72% 0 in 127 W/m2
17:53 56.1 °F 47.7 °F 30.2 in West 6 mph 7 mph 73% 0 in 227 W/m2
17:58 55.9 °F 47.1 °F 30.2 in West 4 mph 6 mph 72% 0 in 46 W/m2
18:03 55.8 °F 47.3 °F 30.2 in West 4 mph 7 mph 73% 0 in 44 W/m2
18:08 55.6 °F 46.8 °F 30.2 in West 6.9 mph 11 mph 72% 0 in 53 W/m2
18:13 55.4 °F 46.6 °F 30.2 in West 4 mph 8 mph 72% 0 in 47 W/m2
18:18 55.4 °F 46.6 °F 30.2 in West 4 mph 11 mph 72% 0 in 53 W/m2
18:23 55.6 °F 46.8 °F 30.2 in West 2 mph 6 mph 72% 0 in 47 W/m2
18:28 55.6 °F 47.1 °F 30.2 in West 2.9 mph 7 mph 73% 0 in 44 W/m2
18:33 55.4 °F 46.9 °F 30.2 in West 2 mph 7 mph 73% 0 in 54 W/m2
18:38 55.4 °F 46.9 °F 30.2 in West 0.9 mph 4 mph 73% 0 in 49 W/m2
18:43 55.4 °F 47.3 °F 30.2 in WNW 2 mph 8 mph 74% 0 in 46 W/m2
18:48 55.6 °F 47.1 °F 30.2 in WSW 2 mph 11 mph 73% 0 in 28 W/m2
18:53 55.6 °F 46.8 °F 30.2 in West 4 mph 9 mph 72% 0 in 16 W/m2
18:58 55.4 °F 46.6 °F 30.2 in WSW 4.9 mph 11 mph 72% 0 in 14 W/m2
19:03 55 °F 45.5 °F 30.2 in West 8.1 mph 10 mph 70% 0 in 11 W/m2
19:08 54.9 °F 45 °F 30.2 in West 6.9 mph 10 mph 69% 0 in 11 W/m2
19:13 54.7 °F 44.2 °F 30.2 in NNW 8.9 mph 9 mph 68% 0 in 7 W/m2
19:18 54.3 °F 44.1 °F 30.2 in WNW 8.1 mph 9 mph 68% 0 in 5 W/m2
19:23 54.1 °F 43.9 °F 30.2 in West 10.1 mph 10 mph 68% 0 in 0 W/m2
19:28 54 °F 43.7 °F 30.2 in WSW 8.1 mph 9 mph 68% 0 in 0 W/m2
19:33 53.8 °F 43.9 °F 30.2 in WNW 4 mph 10 mph 69% 0 in 0 W/m2
19:38 53.4 °F 43.5 °F 30.2 in West 2.9 mph 10 mph 69% 0 in 0 W/m2
19:43 53.2 °F 43.7 °F 30.2 in West 2.9 mph 8 mph 70% 0 in 0 W/m2
19:48 53.1 °F 43.5 °F 30.2 in WNW 6.9 mph 8 mph 70% 0 in 0 W/m2
19:53 52.9 °F 43.7 °F 30.2 in West 4 mph 9 mph 71% 0 in 0 W/m2
19:58 52.5 °F 43.7 °F 30.2 in WNW 6.9 mph 10 mph 72% 0 in 0 W/m2
20:03 52.5 °F 44.1 °F 30.2 in WSW 4 mph 8 mph 73% 0 in 0 W/m2
20:08 52.3 °F 43.9 °F 30.2 in West 6 mph 10 mph 73% 0 in 0 W/m2
20:13 52.2 °F 44.1 °F 30.2 in West 2.9 mph 6 mph 74% 0 in 0 W/m2
20:18 52 °F 44.2 °F 30.2 in WNW 2.9 mph 11 mph 75% 0 in 0 W/m2
20:23 51.8 °F 44.4 °F 30.2 in NW 4 mph 7 mph 76% 0 in 0 W/m2
20:28 51.4 °F 44.1 °F 30.2 in NW 2.9 mph 11 mph 76% 0 in 0 W/m2
20:33 51.4 °F 44.4 °F 30.2 in SW 6 mph 7 mph 77% 0 in 0 W/m2
20:38 51.1 °F 44.4 °F 30.2 in WSW 4 mph 9 mph 78% 0 in 0 W/m2
20:44 50.9 °F 44.6 °F 30.2 in WNW 4.9 mph 5 mph 79% 0 in 0 W/m2
20:49 50.7 °F 44.8 °F 30.3 in WNW 2 mph 8 mph 80% 0 in 0 W/m2
20:54 50.5 °F 45 °F 30.3 in West 6 mph 6 mph 81% 0 in 0 W/m2
20:59 50.4 °F 44.8 °F 30.3 in West 6 mph 9 mph 81% 0 in 0 W/m2
21:04 50.4 °F 45.1 °F 30.3 in SW 2 mph 9 mph 82% 0 in 0 W/m2
21:09 50.2 °F 45 °F 30.3 in SW 2.9 mph 7 mph 82% 0 in 0 W/m2
21:14 49.8 °F 44.8 °F 30.3 in West 4 mph 7 mph 83% 0 in 0 W/m2
21:19 49.8 °F 44.8 °F 30.3 in West 2 mph 4 mph 83% 0 in 0 W/m2
21:24 49.8 °F 44.8 °F 30.3 in West 6 mph 11 mph 83% 0 in 0 W/m2
21:29 49.8 °F 44.8 °F 30.3 in WSW 2 mph 9 mph 83% 0 in 0 W/m2
21:34 49.8 °F 44.8 °F 30.3 in WSW 2 mph 11 mph 83% 0 in 0 W/m2
21:39 49.8 °F 45.1 °F 30.3 in West 4 mph 9 mph 84% 0 in 0 W/m2
21:44 49.8 °F 45.1 °F 30.3 in NW 2 mph 8 mph 84% 0 in 0 W/m2
21:49 49.8 °F 45.1 °F 30.3 in WSW 4 mph 9 mph 84% 0 in 0 W/m2
21:54 49.8 °F 45.1 °F 30.3 in NW 4 mph 7 mph 84% 0 in 0 W/m2
21:59 49.6 °F 45.3 °F 30.3 in West 4 mph 8 mph 85% 0 in 0 W/m2
22:04 49.6 °F 45.3 °F 30.3 in West 2.9 mph 9 mph 85% 0 in 0 W/m2
22:09 49.6 °F 45.3 °F 30.3 in NW 2 mph 6 mph 85% 0 in 0 W/m2
22:14 49.5 °F 45.5 °F 30.3 in West 6 mph 8 mph 86% 0 in 0 W/m2
22:19 49.5 °F 45.5 °F 30.3 in West 10.1 mph 10 mph 86% 0 in 0 W/m2
22:24 49.5 °F 45.5 °F 30.3 in WNW 2.9 mph 8 mph 86% 0 in 0 W/m2
22:29 49.5 °F 45.5 °F 30.3 in WSW 4.9 mph 11 mph 86% 0 in 0 W/m2
22:34 49.5 °F 45.5 °F 30.3 in WNW 2.9 mph 5 mph 86% 0 in 0 W/m2
22:39 49.3 °F 45.3 °F 30.3 in SW 2.9 mph 11 mph 86% 0 in 0 W/m2
22:44 49.3 °F 45.3 °F 30.3 in WNW 2.9 mph 7 mph 86% 0 in 0 W/m2
22:49 49.3 °F 45.5 °F 30.3 in WNW 6 mph 9 mph 87% 0 in 0 W/m2
22:54 49.1 °F 45.3 °F 30.3 in West 4 mph 10 mph 87% 0 in 0 W/m2
22:59 49.1 °F 45.3 °F 30.3 in West 2 mph 6 mph 87% 0 in 0 W/m2
23:04 48.9 °F 45.1 °F 30.3 in WSW 2.9 mph 10 mph 87% 0 in 0 W/m2
23:09 48.9 °F 45.1 °F 30.3 in WNW 4 mph 4 mph 87% 0 in 0 W/m2
23:14 48.7 °F 45 °F 30.3 in WNW 2.9 mph 7 mph 87% 0 in 0 W/m2
23:19 48.7 °F 45.3 °F 30.3 in WNW 2.9 mph 3 mph 88% 0 in 0 W/m2
23:24 48.6 °F 45.1 °F 30.3 in West 6 mph 8 mph 88% 0 in 0 W/m2
23:29 48.6 °F 45.1 °F 30.3 in NW 2 mph 5 mph 88% 0 in 0 W/m2
23:34 48.4 °F 45 °F 30.3 in West 2 mph 8 mph 88% 0 in 0 W/m2
23:39 48.4 °F 45 °F 30.3 in WNW 2.9 mph 9 mph 88% 0 in 0 W/m2
23:44 48.4 °F 45.3 °F 30.3 in West 2.9 mph 4 mph 89% 0 in 0 W/m2
23:49 48 °F 44.6 °F 30.3 in SSW 4.9 mph 9 mph 88% 0 in 0 W/m2
23:54 48 °F 45 °F 30.3 in WNW 2.9 mph 10 mph 89% 0 in 0 W/m2
23:59 47.8 °F 44.8 °F 30.3 in WNW 2 mph 7 mph 89% 0 in 0 W/m2
Juneau County Weather
Compliments of Weather Underground - 4 mb